createdAt,value
2022-10-17T00:00:07.287Z,99505.25
2022-10-17T00:03:31.150Z,99508.56
2022-10-17T00:06:37.130Z,99509.91
2022-10-17T00:09:43.719Z,99508.00
2022-10-17T00:12:46.945Z,99497.53
2022-10-17T00:15:50.491Z,99510.19
2022-10-17T00:18:54.249Z,99499.75
2022-10-17T00:21:58.949Z,99501.09
2022-10-17T00:25:02.775Z,99498.34
2022-10-17T00:28:06.654Z,99498.63
2022-10-17T00:31:10.035Z,99502.50
2022-10-17T00:34:13.728Z,99495.88
2022-10-17T00:37:18.098Z,99497.81
2022-10-17T00:40:21.658Z,99508.28
2022-10-17T00:43:24.790Z,99508.28
2022-10-17T00:46:32.103Z,99514.88
2022-10-17T00:49:39.610Z,99505.28
2022-10-17T00:52:46.808Z,99506.41
2022-10-17T00:55:54.424Z,99508.31
2022-10-17T00:58:58.318Z,99512.72
2022-10-17T01:02:06.293Z,99509.72
2022-10-17T01:05:11.716Z,99520.72
2022-10-17T01:08:16.712Z,99517.41
2022-10-17T01:11:39.441Z,99524.56
2022-10-17T01:14:59.316Z,99523.47
2022-10-17T01:18:20.300Z,99530.63
2022-10-17T01:21:53.002Z,99528.41
2022-10-17T01:25:27.959Z,99532.53
2022-10-17T01:29:02.825Z,99526.00
2022-10-17T01:32:17.617Z,99531.75
2022-10-17T01:35:31.785Z,99534.75
2022-10-17T01:38:47.769Z,99525.69
2022-10-17T01:41:59.406Z,99520.47
2022-10-17T01:45:11.562Z,99526.78
2022-10-17T01:48:22.735Z,99521.28
2022-10-17T01:51:36.257Z,99523.22
2022-10-17T01:54:46.508Z,99519.66
2022-10-17T01:57:56.644Z,99522.41
2022-10-17T02:01:04.586Z,99522.66
2022-10-17T02:04:12.857Z,99520.75
2022-10-17T02:07:16.143Z,99518.56
2022-10-17T02:10:31.790Z,99521.56
2022-10-17T02:13:56.681Z,99521.84
2022-10-17T02:17:14.792Z,99521.31
2022-10-17T02:20:29.027Z,99518.56
2022-10-17T02:23:47.482Z,99524.88
2022-10-17T02:27:03.783Z,99520.75
2022-10-17T02:30:13.736Z,99515.56
2022-10-17T02:33:25.259Z,99516.66
2022-10-17T02:36:42.109Z,99517.50
2022-10-17T02:39:49.288Z,99519.69
2022-10-17T02:42:57.282Z,99530.69
2022-10-17T02:46:00.886Z,99527.41
2022-10-17T02:49:13.457Z,99538.94
2022-10-17T02:52:30.222Z,99538.94
2022-10-17T02:55:42.107Z,99543.34
2022-10-17T02:58:51.752Z,99542.25
2022-10-17T03:01:56.025Z,99544.44
2022-10-17T03:05:00.463Z,99536.47
2022-10-17T03:08:06.120Z,99543.63
2022-10-17T03:11:09.568Z,99541.16
2022-10-17T03:14:12.924Z,99547.75
2022-10-17T03:17:17.099Z,99556.81
2022-10-17T03:20:20.809Z,99552.44
2022-10-17T03:23:25.232Z,99556.81
2022-10-17T03:26:30.069Z,99557.09
2022-10-17T03:29:34.284Z,99554.66
2022-10-17T03:32:39.776Z,99552.72
2022-10-17T03:35:43.096Z,99560.16
2022-10-17T03:38:48.624Z,99552.72
2022-10-17T03:41:53.449Z,99554.94
2022-10-17T03:44:56.999Z,99557.69
2022-10-17T03:48:00.538Z,99559.63
2022-10-17T03:51:07.266Z,99568.69
2022-10-17T03:54:16.396Z,99568.69
2022-10-17T03:57:20.512Z,99576.94
2022-10-17T04:00:24.041Z,99570.06
2022-10-17T04:03:33.040Z,99575.84
2022-10-17T04:06:37.124Z,99575.00
2022-10-17T04:09:42.764Z,99581.34
2022-10-17T04:12:56.591Z,99583.53
2022-10-17T04:16:03.280Z,99569.50
2022-10-17T04:19:06.529Z,99568.69
2022-10-17T04:22:16.356Z,99572.53
2022-10-17T04:25:20.833Z,99573.91
2022-10-17T04:28:25.805Z,99572.53
2022-10-17T04:31:29.253Z,99575.28
2022-10-17T04:34:42.598Z,99570.88
2022-10-17T04:37:45.769Z,99578.31
2022-10-17T04:40:57.783Z,99582.72
2022-10-17T04:44:00.907Z,99579.41
2022-10-17T04:47:04.639Z,99571.97
2022-10-17T04:50:08.263Z,99568.41
2022-10-17T04:53:13.068Z,99572.81
2022-10-17T04:56:20.904Z,99567.84
2022-10-17T04:59:24.091Z,99573.63
2022-10-17T05:02:36.348Z,99575.59
2022-10-17T05:05:41.643Z,99573.38
2022-10-17T05:08:46.686Z,99578.06
2022-10-17T05:11:51.485Z,99584.66
2022-10-17T05:14:55.479Z,99592.91
2022-10-17T05:18:02.070Z,99591.81
2022-10-17T05:21:06.647Z,99599.50
2022-10-17T05:24:14.549Z,99600.34
2022-10-17T05:27:18.908Z,99600.06
2022-10-17T05:30:22.794Z,99601.69
2022-10-17T05:33:31.539Z,99614.31
2022-10-17T05:36:34.877Z,99609.66
2022-10-17T05:39:40.341Z,99612.94
2022-10-17T05:42:49.663Z,99610.47
2022-10-17T05:45:55.422Z,99619.81
2022-10-17T05:48:59.170Z,99618.19
2022-10-17T05:52:02.737Z,99622.56
2022-10-17T05:55:11.465Z,99627.22
2022-10-17T05:58:27.041Z,99628.00
2022-10-17T06:01:35.988Z,99646.13
2022-10-17T06:04:40.956Z,99647.19
2022-10-17T06:07:45.260Z,99648.81
2022-10-17T06:10:50.858Z,99660.88
2022-10-17T06:13:55.912Z,99661.34
2022-10-17T06:17:02.250Z,99669.78
2022-10-17T06:20:08.946Z,99666.38
2022-10-17T06:23:12.069Z,99676.50
2022-10-17T06:26:29.828Z,99673.91
2022-10-17T06:29:35.102Z,99678.50
2022-10-17T06:32:39.122Z,99680.06
2022-10-17T06:35:42.351Z,99675.31
2022-10-17T06:38:46.305Z,99680.28
2022-10-17T06:41:57.216Z,99685.34
2022-10-17T06:45:16.688Z,99688.13
2022-10-17T06:48:31.503Z,99692.31
2022-10-17T06:51:50.361Z,99700.03
2022-10-17T06:54:56.735Z,99699.19
2022-10-17T06:58:42.549Z,99704.97
2022-10-17T07:02:03.775Z,99702.75
2022-10-17T07:05:08.162Z,99708.25
2022-10-17T07:08:11.378Z,99702.13
2022-10-17T07:11:20.288Z,99706.72
2022-10-17T07:14:31.969Z,99710.75
2022-10-17T07:17:37.744Z,99714.53
2022-10-17T07:20:40.867Z,99717.81
2022-10-17T07:23:44.212Z,99722.22
2022-10-17T07:26:47.634Z,99716.16
2022-10-17T07:29:51.460Z,99718.34
2022-10-17T07:33:03.762Z,99719.22
2022-10-17T07:36:08.396Z,99711.84
2022-10-17T07:39:12.154Z,99715.69
2022-10-17T07:42:15.703Z,99719.28
2022-10-17T07:45:19.097Z,99721.75
2022-10-17T07:48:26.216Z,99717.88
2022-10-17T07:51:29.726Z,99731.69
2022-10-17T07:54:33.159Z,99720.34
2022-10-17T07:57:36.314Z,99718.94
2022-10-17T08:00:41.046Z,99724.16
2022-10-17T08:03:48.567Z,99716.72
2022-10-17T08:06:56.427Z,99723.34
2022-10-17T08:10:04.064Z,99716.72
2022-10-17T08:13:07.930Z,99720.28
2022-10-17T08:16:14.226Z,99716.13
2022-10-17T08:19:19.035Z,99723.84
2022-10-17T08:22:22.153Z,99727.72
2022-10-17T08:25:25.760Z,99726.88
2022-10-17T08:28:29.793Z,99733.22
2022-10-17T08:31:33.035Z,99732.94
2022-10-17T08:34:37.662Z,99726.31
2022-10-17T08:37:41.375Z,99737.34
2022-10-17T08:40:44.483Z,99731.28
2022-10-17T08:44:09.028Z,99726.81
2022-10-17T08:47:20.584Z,99724.66
2022-10-17T08:50:37.092Z,99728.75
2022-10-17T08:53:46.423Z,99727.94
2022-10-17T08:56:54.338Z,99727.94
2022-10-17T08:59:57.958Z,99719.97
2022-10-17T09:03:23.658Z,99725.41
2022-10-17T09:06:33.638Z,99724.88
2022-10-17T09:09:52.357Z,99719.91
2022-10-17T09:13:31.906Z,99717.69
2022-10-17T09:17:00.788Z,99716.88
2022-10-17T09:20:14.223Z,99723.31
2022-10-17T09:23:24.823Z,99720.53
2022-10-17T09:26:29.477Z,99725.00
2022-10-17T09:29:37.900Z,99726.09
2022-10-17T09:32:43.644Z,99723.63
2022-10-17T09:41:00.663Z,99710.09
2022-10-17T09:44:21.790Z,99722.50
2022-10-17T09:47:32.931Z,99720.34
2022-10-17T09:50:36.268Z,99715.94
2022-10-17T09:53:46.185Z,99730.25
2022-10-17T09:57:02.577Z,99717.81
2022-10-17T10:00:09.141Z,99721.22
2022-10-17T10:03:21.878Z,99719.66
2022-10-17T10:06:25.160Z,99710.94
2022-10-17T10:09:36.872Z,99702.44
2022-10-17T10:12:42.509Z,99724.28
2022-10-17T10:15:49.107Z,99717.13
2022-10-17T10:18:53.343Z,99713.59
2022-10-17T10:21:58.756Z,99719.69
2022-10-17T10:25:16.088Z,99717.22
2022-10-17T10:28:20.219Z,99713.44
2022-10-17T10:31:36.161Z,99715.63
2022-10-17T10:34:49.874Z,99717.03
2022-10-17T10:37:56.698Z,99728.91
2022-10-17T10:41:07.412Z,99717.59
2022-10-17T10:44:17.033Z,99716.25
2022-10-17T10:47:26.591Z,99718.19
2022-10-17T10:50:42.978Z,99712.66
2022-10-17T10:53:58.057Z,99709.38
2022-10-17T10:57:06.190Z,99708.81
2022-10-17T11:00:19.844Z,99711.31
2022-10-17T11:03:33.254Z,99700.56
2022-10-17T11:06:43.115Z,99698.09
2022-10-17T11:09:57.310Z,99708.28
2022-10-17T11:13:11.312Z,99701.13
2022-10-17T11:16:36.625Z,99698.63
2022-10-17T11:19:51.866Z,99693.97
2022-10-17T11:23:01.876Z,99689.56
2022-10-17T11:26:15.371Z,99686.25
2022-10-17T11:29:18.433Z,99686.53
2022-10-17T11:32:31.437Z,99685.41
2022-10-17T11:35:42.050Z,99687.63
2022-10-17T11:38:52.366Z,99693.69
2022-10-17T11:42:06.739Z,99687.06
2022-10-17T11:45:17.978Z,99687.88
2022-10-17T11:48:29.696Z,99682.94
2022-10-17T11:52:01.474Z,99678.78
2022-10-17T11:55:18.464Z,99681.81
2022-10-17T11:58:37.823Z,99673.28
2022-10-17T12:01:49.944Z,99671.63
2022-10-17T12:05:05.190Z,99678.78
2022-10-17T12:08:22.025Z,99671.03
2022-10-17T12:11:53.908Z,99674.31
2022-10-17T12:15:31.544Z,99680.91
2022-10-17T12:18:34.969Z,99683.19
2022-10-17T12:21:58.369Z,99679.81
2022-10-17T12:25:05.292Z,99681.19
2022-10-17T12:28:17.792Z,99684.22
2022-10-17T12:31:33.356Z,99682.81
2022-10-17T12:34:37.276Z,99669.03
2022-10-17T12:38:15.129Z,99669.25
2022-10-17T12:41:54.920Z,99667.59
2022-10-17T12:44:58.484Z,99673.44
2022-10-17T12:48:01.455Z,99673.69
2022-10-17T12:54:47.954Z,99669.25
2022-10-17T12:58:03.145Z,99670.06
2022-10-17T13:01:23.837Z,99663.72
2022-10-17T13:04:30.823Z,99671.72
2022-10-17T13:07:37.109Z,99665.63
2022-10-17T13:10:43.226Z,99668.41
2022-10-17T13:13:52.114Z,99671.38
2022-10-17T13:16:58.901Z,99668.34
2022-10-17T13:20:02.707Z,99662.00
2022-10-17T13:23:06.225Z,99658.97
2022-10-17T13:26:20.062Z,99659.75
2022-10-17T13:29:28.664Z,99661.69
2022-10-17T13:32:38.781Z,99655.03
2022-10-17T13:35:59.370Z,99659.72
2022-10-17T13:39:13.072Z,99652.00
2022-10-17T13:42:25.608Z,99653.63
2022-10-17T13:45:33.349Z,99656.09
2022-10-17T13:48:39.422Z,99660.22
2022-10-17T13:51:46.176Z,99658.00
2022-10-17T13:54:53.600Z,99649.72
2022-10-17T13:57:57.300Z,99651.94
2022-10-17T14:01:02.545Z,99658.53
2022-10-17T14:04:14.112Z,99651.81
2022-10-17T14:07:46.223Z,99648.91
2022-10-17T14:10:56.008Z,99656.53
2022-10-17T14:14:02.111Z,99652.00
2022-10-17T14:17:14.788Z,99653.03
2022-10-17T14:23:45.855Z,99661.81
2022-10-17T14:26:51.820Z,99662.59
2022-10-17T14:30:00.671Z,99666.38
2022-10-17T14:33:17.560Z,99660.81
2022-10-17T14:36:30.869Z,99658.88
2022-10-17T14:39:34.430Z,99658.59
2022-10-17T14:42:41.428Z,99658.81
2022-10-17T14:45:47.986Z,99653.31
2022-10-17T14:49:06.269Z,99663.72
2022-10-17T14:52:27.222Z,99658.81
2022-10-17T14:55:33.261Z,99663.00
2022-10-17T14:58:36.713Z,99661.63
2022-10-17T15:01:39.684Z,99650.34
2022-10-17T15:04:44.412Z,99645.66
2022-10-17T15:07:48.070Z,99648.69
2022-10-17T15:10:52.724Z,99647.34
2022-10-17T15:13:55.736Z,99630.03
2022-10-17T15:16:59.090Z,99634.50
2022-10-17T15:20:03.509Z,99630.97
2022-10-17T15:23:06.807Z,99627.13
2022-10-17T15:26:19.386Z,99621.63
2022-10-17T15:29:22.664Z,99622.78
2022-10-17T15:32:25.700Z,99615.94
2022-10-17T15:35:30.763Z,99618.72
2022-10-17T15:38:34.798Z,99622.66
2022-10-17T15:41:38.517Z,99628.25
2022-10-17T15:44:44.162Z,99615.31
2022-10-17T15:47:54.047Z,99622.00
2022-10-17T15:50:58.930Z,99619.34
2022-10-17T15:54:02.889Z,99618.06
2022-10-17T15:57:06.054Z,99626.13
2022-10-17T16:00:17.503Z,99614.31
2022-10-17T16:06:30.319Z,99624.06
2022-10-17T16:09:33.939Z,99626.88
2022-10-17T16:12:41.289Z,99625.50
2022-10-17T16:15:44.325Z,99627.47
2022-10-17T16:18:47.954Z,99613.47
2022-10-17T16:21:52.295Z,99627.53
2022-10-17T16:24:59.193Z,99626.44
2022-10-17T16:28:02.553Z,99627.84
2022-10-17T16:31:15.810Z,99632.81
2022-10-17T16:34:18.770Z,99637.25
2022-10-17T16:37:23.817Z,99632.59
2022-10-17T16:40:27.052Z,99621.66
2022-10-17T16:43:36.477Z,99624.97
2022-10-17T16:46:39.586Z,99620.63
2022-10-17T16:49:45.312Z,99618.75
2022-10-17T16:52:50.185Z,99624.56
2022-10-17T16:56:01.622Z,99614.13
2022-10-17T16:59:04.750Z,99622.97
2022-10-17T17:02:08.756Z,99632.91
2022-10-17T17:05:12.400Z,99626.84
2022-10-17T17:08:17.298Z,99622.78
2022-10-17T17:11:23.265Z,99631.34
2022-10-17T17:14:27.166Z,99632.13
2022-10-17T17:17:30.752Z,99632.97
2022-10-17T17:20:48.562Z,99632.41
2022-10-17T17:23:52.884Z,99638.50
2022-10-17T17:26:58.505Z,99632.47
2022-10-17T17:30:01.430Z,99633.31
2022-10-17T17:33:06.667Z,99626.16
2022-10-17T17:36:14.888Z,99630.59
2022-10-17T17:39:20.060Z,99634.13
2022-10-17T17:42:23.058Z,99626.97
2022-10-17T17:45:26.936Z,99627.50
2022-10-17T17:48:30.175Z,99636.59
2022-10-17T17:51:34.779Z,99629.97
2022-10-17T17:54:40.957Z,99632.44
2022-10-17T17:57:44.494Z,99633.50
2022-10-17T18:00:47.934Z,99634.59
2022-10-17T18:03:55.836Z,99645.91
2022-10-17T18:06:58.848Z,99636.63
2022-10-17T18:10:06.950Z,99635.22
2022-10-17T18:13:10.135Z,99628.06
2022-10-17T18:16:14.962Z,99630.25
2022-10-17T18:19:18.281Z,99629.16
2022-10-17T18:22:25.965Z,99635.72
2022-10-17T18:25:31.322Z,99632.41
2022-10-17T18:28:36.242Z,99630.19
2022-10-17T18:31:39.755Z,99635.66
2022-10-17T18:34:44.114Z,99627.41
2022-10-17T18:37:47.163Z,99632.34
2022-10-17T18:40:52.051Z,99626.25
2022-10-17T18:43:56.680Z,99635.91
2022-10-17T18:47:03.841Z,99621.84
2022-10-17T18:50:08.374Z,99634.22
2022-10-17T18:53:11.944Z,99629.56
2022-10-17T18:56:17.853Z,99624.88
2022-10-17T18:59:23.060Z,99622.34
2022-10-17T19:02:26.055Z,99617.38
2022-10-17T19:05:30.868Z,99627.28
2022-10-17T19:08:34.164Z,99623.69
2022-10-17T19:11:40.229Z,99631.38
2022-10-17T19:14:43.252Z,99625.59
2022-10-17T19:17:47.217Z,99629.72
2022-10-17T19:20:52.509Z,99634.94
2022-10-17T19:23:58.671Z,99625.03
2022-10-17T19:27:05.128Z,99623.91
2022-10-17T19:30:10.744Z,99622.00
2022-10-17T19:33:15.405Z,99624.75
2022-10-17T19:36:21.458Z,99612.63
2022-10-17T19:39:26.610Z,99617.03
2022-10-17T19:42:32.731Z,99619.50
2022-10-17T19:45:36.152Z,99618.97
2022-10-17T19:48:40.744Z,99625.00
2022-10-17T19:51:44.211Z,99622.53
2022-10-17T19:54:47.678Z,99615.91
2022-10-17T19:57:52.538Z,99611.25
2022-10-17T20:01:00.992Z,99618.69
2022-10-17T20:04:04.052Z,99610.16
2022-10-17T20:07:07.297Z,99619.50
2022-10-17T20:10:10.755Z,99617.88
2022-10-17T20:13:15.926Z,99620.88
2022-10-17T20:16:21.537Z,99620.06
2022-10-17T20:19:24.954Z,99622.81
2022-10-17T20:22:28.272Z,99627.78
2022-10-17T20:25:33.348Z,99620.63
2022-10-17T20:28:37.800Z,99632.19
2022-10-17T20:31:43.215Z,99620.63
2022-10-17T20:34:46.285Z,99616.75
2022-10-17T20:37:50.032Z,99623.91
2022-10-17T20:40:53.006Z,99619.78
2022-10-17T20:43:58.221Z,99622.00
2022-10-17T20:47:02.675Z,99615.66
2022-10-17T20:50:07.384Z,99612.91
2022-10-17T20:53:35.319Z,99614.56
2022-10-17T20:56:36.160Z,99610.16
2022-10-17T20:59:41.802Z,99614.28
2022-10-17T21:02:45.431Z,99608.75
2022-10-17T21:05:48.623Z,99605.47
2022-10-17T21:08:55.953Z,99609.03
2022-10-17T21:11:59.071Z,99599.41
2022-10-17T21:15:04.936Z,99601.34
2022-10-17T21:18:07.896Z,99602.44
2022-10-17T21:21:16.109Z,99604.09
2022-10-17T21:24:20.783Z,99597.22
2022-10-17T21:27:24.378Z,99598.88
2022-10-17T21:30:28.789Z,99600.81
2022-10-17T21:33:32.170Z,99599.16
2022-10-17T21:36:35.425Z,99600.25
2022-10-17T21:39:38.938Z,99599.47
2022-10-17T21:42:41.927Z,99594.75
2022-10-17T21:45:46.874Z,99593.97
2022-10-17T21:48:51.832Z,99601.09
2022-10-17T21:51:55.343Z,99600.56
2022-10-17T21:54:58.454Z,99600.56
2022-10-17T21:58:01.864Z,99597.00
2022-10-17T22:01:10.224Z,99594.75
2022-10-17T22:04:19.819Z,99594.75
2022-10-17T22:07:22.827Z,99585.16
2022-10-17T22:10:26.361Z,99591.78
2022-10-17T22:13:29.804Z,99584.34
2022-10-17T22:16:36.011Z,99574.97
2022-10-17T22:19:39.040Z,99579.66
2022-10-17T22:22:42.205Z,99584.34
2022-10-17T22:25:45.198Z,99577.72
2022-10-17T22:28:48.471Z,99579.38
2022-10-17T22:31:52.958Z,99581.00
2022-10-17T22:34:56.120Z,99579.38
2022-10-17T22:37:59.095Z,99571.69
2022-10-17T22:41:02.836Z,99569.47
2022-10-17T22:44:06.988Z,99566.72
2022-10-17T22:47:11.654Z,99566.72
2022-10-17T22:50:14.878Z,99571.09
2022-10-17T22:53:23.856Z,99570.28
2022-10-17T22:56:27.097Z,99567.53
2022-10-17T22:59:30.455Z,99574.97
2022-10-17T23:02:35.007Z,99572.72
2022-10-17T23:05:38.511Z,99582.13
2022-10-17T23:08:43.608Z,99581.31
2022-10-17T23:11:47.246Z,99574.97
2022-10-17T23:14:50.414Z,99568.63
2022-10-17T23:17:55.537Z,99572.72
2022-10-17T23:21:01.339Z,99560.38
2022-10-17T23:24:05.381Z,99570.28
2022-10-17T23:27:08.807Z,99568.34
2022-10-17T23:30:12.944Z,99571.09
2022-10-17T23:33:17.388Z,99566.72
2022-10-17T23:36:22.161Z,99557.34
2022-10-17T23:39:25.231Z,99556.22
2022-10-17T23:42:29.271Z,99549.31
2022-10-17T23:45:36.053Z,99555.09
2022-10-17T23:48:43.301Z,99560.63
2022-10-17T23:51:46.361Z,99557.34
2022-10-17T23:54:50.166Z,99554.59
2022-10-17T23:57:53.637Z,99560.09
